createdAt,value
2019-03-24T00:01:41.365Z,29.83
2019-03-24T00:04:09.381Z,26.20
2019-03-24T00:06:39.085Z,33.77
2019-03-24T00:09:09.062Z,33.53
2019-03-24T00:11:38.787Z,35.97
2019-03-24T00:14:08.481Z,24.90
2019-03-24T00:16:38.159Z,23.27
2019-03-24T00:19:08.338Z,27.73
2019-03-24T00:21:38.622Z,28.97
2019-03-24T00:24:08.424Z,30.90
2019-03-24T00:26:38.145Z,32.53
2019-03-24T00:29:07.885Z,29.07
2019-03-24T00:31:37.595Z,26.53
2019-03-24T00:34:07.814Z,31.67
2019-03-24T00:36:37.829Z,30.83
2019-03-24T00:39:08.087Z,43.80
2019-03-24T00:41:37.839Z,31.00
2019-03-24T00:44:07.655Z,28.80
2019-03-24T00:46:37.379Z,37.50
2019-03-24T00:49:07.111Z,33.20
2019-03-24T00:51:36.829Z,37.07
2019-03-24T00:54:06.625Z,40.70
2019-03-24T00:56:36.382Z,33.47
2019-03-24T00:59:06.083Z,36.43
2019-03-24T01:01:36.342Z,36.03
2019-03-24T01:04:06.890Z,35.80
2019-03-24T01:06:36.630Z,36.23
2019-03-24T01:09:08.408Z,29.73
2019-03-24T01:11:38.184Z,34.33
2019-03-24T01:14:07.863Z,38.80
2019-03-24T01:16:37.580Z,36.00
2019-03-24T01:19:07.255Z,32.20
2019-03-24T01:21:37.258Z,38.20
2019-03-24T01:24:06.932Z,33.67
2019-03-24T01:26:36.645Z,38.37
2019-03-24T01:29:06.332Z,32.40
2019-03-24T01:31:36.073Z,28.33
2019-03-24T01:36:31.785Z,33.80
2019-03-24T01:39:02.204Z,41.90
2019-03-24T01:41:31.881Z,31.80
2019-03-24T01:44:02.236Z,32.27
2019-03-24T01:46:31.992Z,32.10
2019-03-24T01:49:01.731Z,26.33
2019-03-24T01:51:31.459Z,28.47
2019-03-24T01:54:01.126Z,22.07
2019-03-24T01:56:30.886Z,30.80
2019-03-24T01:59:00.574Z,35.90
2019-03-24T02:01:30.440Z,25.60
2019-03-24T02:04:00.422Z,21.57
2019-03-24T02:06:30.104Z,20.97
2019-03-24T02:08:59.779Z,26.33
2019-03-24T02:11:29.513Z,32.70
2019-03-24T02:13:59.197Z,25.40
2019-03-24T02:16:28.977Z,26.10
2019-03-24T02:18:58.648Z,22.77
2019-03-24T02:21:28.588Z,21.70
2019-03-24T02:23:58.319Z,27.30
2019-03-24T02:26:28.015Z,24.77
2019-03-24T02:28:58.030Z,29.63
2019-03-24T02:31:27.707Z,19.33
2019-03-24T02:33:57.413Z,27.00
2019-03-24T02:36:27.211Z,23.17
2019-03-24T02:38:56.890Z,26.40
2019-03-24T02:41:26.625Z,29.27
2019-03-24T02:43:56.333Z,19.17
2019-03-24T02:46:26.021Z,20.93
2019-03-24T02:48:55.725Z,22.40
2019-03-24T02:51:25.408Z,21.83
2019-03-24T02:53:55.089Z,25.67
2019-03-24T02:56:24.807Z,19.50
2019-03-24T02:58:55.797Z,20.73
2019-03-24T03:01:25.538Z,25.57
2019-03-24T03:03:55.218Z,25.27
2019-03-24T03:06:24.914Z,24.13
2019-03-24T03:08:54.619Z,31.97
2019-03-24T03:11:24.622Z,17.77
2019-03-24T03:13:54.394Z,22.80
2019-03-24T03:16:37.615Z,24.87
2019-03-24T03:18:55.542Z,21.03
2019-03-24T03:21:25.362Z,25.97
2019-03-24T03:23:55.180Z,28.23
2019-03-24T03:26:24.884Z,28.60
2019-03-24T03:28:54.675Z,29.97
2019-03-24T03:31:27.767Z,18.87
2019-03-24T03:33:57.464Z,28.07
2019-03-24T03:36:28.415Z,23.83
2019-03-24T03:38:58.099Z,24.50
2019-03-24T03:41:27.854Z,22.00
2019-03-24T03:43:57.901Z,31.03
2019-03-24T03:46:27.674Z,25.10
2019-03-24T03:48:57.369Z,31.10
2019-03-24T03:51:27.094Z,30.23
2019-03-24T03:53:59.108Z,25.03
2019-03-24T03:56:28.426Z,20.73
2019-03-24T03:58:58.185Z,41.10
2019-03-24T04:01:27.876Z,22.87
2019-03-24T04:03:57.583Z,28.33
2019-03-24T04:06:27.266Z,23.50
2019-03-24T04:08:56.993Z,28.93
2019-03-24T04:11:26.743Z,29.17
2019-03-24T04:13:56.421Z,27.67
2019-03-24T04:16:26.080Z,26.00
2019-03-24T04:18:55.821Z,23.73
2019-03-24T04:21:26.225Z,21.67
2019-03-24T04:23:55.939Z,32.20
2019-03-24T04:26:25.713Z,25.37
2019-03-24T04:28:55.452Z,21.53
2019-03-24T04:31:25.135Z,18.47
2019-03-24T04:33:55.142Z,21.60
2019-03-24T04:36:24.912Z,23.47
2019-03-24T04:38:54.587Z,19.30
2019-03-24T04:41:24.347Z,30.03
2019-03-24T04:43:54.035Z,25.97
2019-03-24T04:46:23.713Z,23.13
2019-03-24T04:48:53.455Z,30.83
2019-03-24T04:51:23.161Z,25.80
2019-03-24T04:53:52.883Z,23.63
2019-03-24T04:56:22.610Z,23.03
2019-03-24T04:58:52.258Z,25.37
2019-03-24T05:01:21.997Z,21.53
2019-03-24T05:03:51.807Z,22.27
2019-03-24T05:06:21.505Z,23.13
2019-03-24T05:08:51.325Z,26.50
2019-03-24T05:11:21.010Z,22.00
2019-03-24T05:13:50.744Z,21.77
2019-03-24T05:16:20.423Z,21.57
2019-03-24T05:18:50.184Z,26.33
2019-03-24T05:21:19.873Z,33.73
2019-03-24T05:23:49.548Z,23.77
2019-03-24T05:26:19.252Z,25.00
2019-03-24T05:28:48.978Z,25.50
2019-03-24T05:31:18.700Z,24.43
2019-03-24T05:33:48.404Z,29.33
2019-03-24T05:36:18.110Z,27.73
2019-03-24T05:38:47.807Z,31.57
2019-03-24T05:41:17.515Z,29.50
2019-03-24T05:43:47.233Z,28.93
2019-03-24T05:46:16.912Z,27.47
2019-03-24T05:48:46.639Z,28.33
2019-03-24T05:51:16.310Z,29.90
2019-03-24T05:53:46.057Z,24.77
2019-03-24T05:56:15.785Z,39.50
2019-03-24T05:58:45.452Z,38.73
2019-03-24T06:01:15.687Z,30.87
2019-03-24T06:03:45.418Z,40.83
2019-03-24T06:06:15.285Z,32.70
2019-03-24T06:08:45.003Z,36.07
2019-03-24T06:11:14.823Z,30.77
2019-03-24T06:13:44.692Z,28.37
2019-03-24T06:16:14.556Z,24.27
2019-03-24T06:18:44.273Z,27.87
2019-03-24T06:21:13.958Z,28.50
2019-03-24T06:23:43.690Z,36.60
2019-03-24T06:26:13.416Z,28.73
2019-03-24T06:28:43.120Z,27.03
2019-03-24T06:31:13.061Z,26.97
2019-03-24T06:33:42.811Z,29.00
2019-03-24T06:36:12.643Z,34.73
2019-03-24T06:38:42.342Z,24.37
2019-03-24T06:41:12.081Z,31.73
2019-03-24T06:43:44.026Z,40.47
2019-03-24T06:46:15.056Z,45.33
2019-03-24T06:48:45.185Z,34.90
2019-03-24T06:51:14.878Z,25.33
2019-03-24T06:53:44.597Z,38.53
2019-03-24T06:56:14.315Z,33.30
2019-03-24T06:58:44.038Z,51.37
2019-03-24T07:01:13.736Z,39.53
2019-03-24T07:03:43.500Z,30.73
2019-03-24T07:06:13.175Z,59.07
2019-03-24T07:08:42.906Z,59.60
2019-03-24T07:11:13.868Z,28.40
2019-03-24T07:13:43.648Z,15.67
2019-03-24T07:16:13.383Z,29.40
2019-03-24T07:18:43.246Z,32.33
2019-03-24T07:21:12.971Z,62.37
2019-03-24T07:23:42.664Z,63.50
2019-03-24T07:26:12.395Z,55.03
2019-03-24T07:28:42.139Z,59.57
2019-03-24T07:31:11.934Z,72.60
2019-03-24T07:33:41.672Z,48.77
2019-03-24T07:36:11.372Z,46.93
2019-03-24T07:38:41.138Z,42.20
2019-03-24T07:41:10.927Z,49.47
2019-03-24T07:43:40.644Z,49.77
2019-03-24T07:46:10.406Z,41.13
2019-03-24T07:51:11.294Z,43.77
2019-03-24T07:53:41.082Z,36.60
2019-03-24T07:56:10.886Z,31.70
2019-03-24T07:58:40.609Z,36.73
2019-03-24T08:01:10.302Z,33.30
2019-03-24T08:03:40.037Z,30.90
2019-03-24T08:06:09.770Z,22.77
2019-03-24T08:08:44.218Z,29.50
2019-03-24T08:11:10.994Z,25.80
2019-03-24T08:13:40.762Z,24.70
2019-03-24T08:16:10.615Z,23.33
2019-03-24T08:18:40.414Z,38.07
2019-03-24T08:21:10.246Z,27.07
2019-03-24T08:23:39.979Z,26.50
2019-03-24T08:26:09.692Z,28.73
2019-03-24T08:28:39.638Z,25.33
2019-03-24T08:31:09.382Z,23.40
2019-03-24T08:33:39.081Z,19.87
2019-03-24T08:36:08.909Z,22.90
2019-03-24T08:38:38.694Z,28.57
2019-03-24T08:41:09.503Z,36.17
2019-03-24T08:43:39.252Z,26.47
2019-03-24T08:46:09.190Z,24.50
2019-03-24T08:48:41.152Z,21.80
2019-03-24T08:51:10.424Z,25.67
2019-03-24T08:53:40.235Z,25.30
2019-03-24T08:56:09.958Z,27.33
2019-03-24T08:58:39.691Z,21.20
2019-03-24T09:01:09.508Z,28.10
2019-03-24T09:03:39.229Z,24.10
2019-03-24T09:06:08.959Z,25.83
2019-03-24T09:08:39.952Z,22.93
2019-03-24T09:11:09.772Z,19.57
2019-03-24T09:13:39.458Z,21.13
2019-03-24T09:16:09.198Z,29.97
2019-03-24T09:18:38.886Z,26.37
2019-03-24T09:21:08.602Z,32.27
2019-03-24T09:23:38.530Z,28.07
2019-03-24T09:26:08.241Z,22.23
2019-03-24T09:28:37.971Z,24.60
2019-03-24T09:31:07.711Z,25.37
2019-03-24T09:33:37.462Z,22.27
2019-03-24T09:36:07.199Z,25.30
2019-03-24T09:38:36.904Z,25.70
2019-03-24T09:41:06.628Z,21.13
2019-03-24T09:43:36.367Z,23.13
2019-03-24T09:46:06.155Z,19.50
2019-03-24T09:48:36.743Z,27.03
2019-03-24T09:51:06.464Z,21.73
2019-03-24T09:53:36.448Z,29.00
2019-03-24T09:56:06.334Z,23.60
2019-03-24T09:58:36.153Z,20.90
2019-03-24T10:01:05.884Z,25.90
2019-03-24T10:03:35.650Z,19.97
2019-03-24T10:06:05.361Z,27.20
2019-03-24T10:08:35.402Z,21.83
2019-03-24T10:11:05.386Z,20.17
2019-03-24T10:13:35.073Z,24.97
2019-03-24T10:16:04.801Z,20.87
2019-03-24T10:18:34.523Z,20.73
2019-03-24T10:21:04.340Z,21.60
2019-03-24T10:23:34.081Z,19.03
2019-03-24T10:26:03.810Z,22.20
2019-03-24T10:28:33.511Z,24.00
2019-03-24T10:31:03.633Z,21.63
2019-03-24T10:33:33.318Z,25.90
2019-03-24T10:36:03.054Z,26.83
2019-03-24T10:38:32.936Z,21.77
2019-03-24T10:41:02.780Z,21.67
2019-03-24T10:43:32.503Z,21.50
2019-03-24T10:46:02.219Z,22.37
2019-03-24T10:48:33.877Z,23.53
2019-03-24T10:51:03.464Z,26.37
2019-03-24T10:53:33.301Z,22.90
2019-03-24T10:56:02.981Z,26.07
2019-03-24T10:58:32.849Z,23.67
2019-03-24T11:01:02.550Z,22.30
2019-03-24T11:03:32.355Z,19.90
2019-03-24T11:06:02.224Z,24.07
2019-03-24T11:08:31.946Z,20.70
2019-03-24T11:11:01.750Z,19.83
2019-03-24T11:13:31.481Z,22.40
2019-03-24T11:16:01.182Z,26.23
2019-03-24T11:18:30.857Z,17.83
2019-03-24T11:21:00.636Z,26.37
2019-03-24T11:23:30.322Z,23.60
2019-03-24T11:26:00.119Z,17.00
2019-03-24T11:28:29.830Z,20.60
2019-03-24T11:30:59.562Z,21.23
2019-03-24T11:33:29.715Z,17.87
2019-03-24T11:35:59.574Z,22.43
2019-03-24T11:38:29.296Z,19.43
2019-03-24T11:40:59.066Z,22.97
2019-03-24T11:43:28.800Z,22.77
2019-03-24T11:45:58.494Z,14.07
2019-03-24T11:48:28.255Z,15.90
2019-03-24T11:50:58.000Z,19.60
2019-03-24T11:53:27.790Z,9.37
2019-03-24T11:55:57.645Z,14.37
2019-03-24T11:58:27.484Z,14.73
2019-03-24T12:00:57.314Z,17.53
2019-03-24T12:03:27.259Z,15.57
2019-03-24T12:05:59.481Z,13.97
2019-03-24T12:08:29.347Z,13.70
2019-03-24T12:10:59.066Z,14.63
2019-03-24T12:13:28.803Z,16.80
2019-03-24T12:15:58.508Z,12.67
2019-03-24T12:18:28.231Z,14.00
2019-03-24T12:20:58.113Z,11.40
2019-03-24T12:23:27.863Z,12.90
2019-03-24T12:25:57.707Z,9.80
2019-03-24T12:28:27.457Z,15.93
2019-03-24T12:30:58.364Z,12.30
2019-03-24T12:33:28.277Z,16.37
2019-03-24T12:35:58.096Z,14.17
2019-03-24T12:38:27.828Z,14.47
2019-03-24T12:40:57.568Z,10.70
2019-03-24T12:43:27.419Z,12.87
2019-03-24T12:45:58.353Z,13.70
2019-03-24T12:48:28.257Z,14.43
2019-03-24T12:50:58.015Z,14.07
2019-03-24T12:53:27.796Z,15.53
2019-03-24T12:55:57.496Z,15.27
2019-03-24T12:58:27.307Z,13.77
2019-03-24T13:00:57.240Z,17.20
2019-03-24T13:03:26.959Z,14.57
2019-03-24T13:05:56.726Z,15.63
2019-03-24T13:08:26.515Z,13.87
2019-03-24T13:10:56.598Z,13.87
2019-03-24T13:13:26.337Z,10.33
2019-03-24T13:15:57.601Z,15.47
2019-03-24T13:18:27.419Z,13.93
2019-03-24T13:20:57.219Z,18.33
2019-03-24T13:23:26.919Z,13.37
2019-03-24T13:25:56.776Z,14.93
2019-03-24T13:28:26.462Z,16.73
2019-03-24T13:30:56.289Z,12.47
2019-03-24T13:33:26.055Z,12.50
2019-03-24T13:36:12.824Z,15.07
2019-03-24T13:38:42.538Z,13.73
2019-03-24T13:41:12.280Z,19.17
2019-03-24T13:43:41.978Z,12.60
2019-03-24T13:46:11.802Z,15.97
2019-03-24T13:48:41.636Z,14.10
2019-03-24T13:51:11.533Z,10.33
2019-03-24T13:53:41.470Z,9.23
2019-03-24T13:56:11.782Z,12.13
2019-03-24T13:58:41.598Z,9.83
2019-03-24T14:01:11.489Z,10.00
2019-03-24T14:03:41.239Z,12.13
2019-03-24T14:06:11.005Z,9.23
2019-03-24T14:08:40.801Z,12.23
2019-03-24T14:11:10.524Z,12.13
2019-03-24T14:13:40.278Z,11.63
2019-03-24T14:16:10.032Z,10.33
2019-03-24T14:18:39.901Z,8.50
2019-03-24T14:21:09.655Z,8.67
2019-03-24T14:23:39.449Z,14.50
2019-03-24T14:26:09.166Z,12.00
2019-03-24T14:28:38.914Z,11.07
2019-03-24T14:31:08.666Z,12.03
2019-03-24T14:33:38.380Z,13.37
2019-03-24T14:36:08.120Z,10.67
2019-03-24T14:38:37.854Z,10.63
2019-03-24T14:41:07.873Z,8.87
2019-03-24T14:43:37.705Z,7.77
2019-03-24T14:46:07.494Z,8.83
2019-03-24T14:48:37.219Z,8.87
2019-03-24T14:51:07.028Z,7.00
2019-03-24T14:53:36.757Z,9.27
2019-03-24T14:56:06.532Z,10.07
2019-03-24T14:58:36.374Z,13.77
2019-03-24T15:01:06.424Z,10.73
2019-03-24T15:03:36.180Z,13.13
2019-03-24T15:06:06.177Z,8.33
2019-03-24T15:08:35.926Z,12.37
2019-03-24T15:11:05.781Z,10.27
2019-03-24T15:13:35.481Z,10.73
2019-03-24T15:16:05.436Z,11.10
2019-03-24T15:18:35.271Z,13.43
2019-03-24T15:21:06.084Z,8.17
2019-03-24T15:23:35.971Z,13.43
2019-03-24T15:26:05.734Z,9.67
2019-03-24T15:28:35.980Z,11.07
2019-03-24T15:31:05.718Z,9.13
2019-03-24T15:33:35.454Z,8.77
2019-03-24T15:36:06.262Z,7.23
2019-03-24T15:38:35.999Z,8.40
2019-03-24T15:41:06.839Z,8.83
2019-03-24T15:43:36.583Z,11.07
2019-03-24T15:46:06.340Z,12.40
2019-03-24T15:48:36.035Z,9.17
2019-03-24T15:51:16.098Z,9.03
2019-03-24T15:53:37.333Z,16.97
2019-03-24T15:56:07.103Z,12.73
2019-03-24T15:58:36.994Z,16.37
2019-03-24T16:01:06.758Z,13.20
2019-03-24T16:03:38.495Z,9.70
2019-03-24T16:06:08.209Z,8.93
2019-03-24T16:08:38.098Z,10.37
2019-03-24T16:11:07.988Z,9.37
2019-03-24T16:13:37.692Z,8.10
2019-03-24T16:16:07.451Z,11.77
2019-03-24T16:18:37.138Z,9.03
2019-03-24T16:21:06.886Z,9.30
2019-03-24T16:23:36.938Z,8.93
2019-03-24T16:26:06.640Z,10.73
2019-03-24T16:28:36.879Z,10.73
2019-03-24T16:31:06.630Z,10.23
2019-03-24T16:33:36.382Z,10.80
2019-03-24T16:36:06.107Z,11.63
2019-03-24T16:38:35.911Z,13.43
2019-03-24T16:41:05.725Z,10.80
2019-03-24T16:43:35.562Z,10.57
2019-03-24T16:46:05.554Z,7.47
2019-03-24T16:48:37.090Z,6.10
2019-03-24T16:51:06.829Z,12.67
2019-03-24T16:53:36.579Z,11.83
2019-03-24T16:56:06.527Z,9.87
2019-03-24T16:58:36.339Z,9.23
2019-03-24T17:01:06.371Z,8.03
2019-03-24T17:03:36.114Z,12.77
2019-03-24T17:06:05.866Z,10.50
2019-03-24T17:08:35.726Z,8.37
2019-03-24T17:11:05.503Z,11.37
2019-03-24T17:13:35.290Z,8.90
2019-03-24T17:16:05.277Z,7.70
2019-03-24T17:18:35.018Z,10.60
2019-03-24T17:21:04.789Z,14.13
2019-03-24T17:23:34.598Z,11.07
2019-03-24T17:26:04.325Z,10.50
2019-03-24T17:28:34.112Z,10.27
2019-03-24T17:31:04.059Z,9.90
2019-03-24T17:33:33.808Z,10.20
2019-03-24T17:36:03.612Z,11.40
2019-03-24T17:38:33.852Z,11.17
2019-03-24T17:41:03.615Z,9.67
2019-03-24T17:43:35.174Z,10.20
2019-03-24T17:46:05.020Z,10.40
2019-03-24T17:48:34.965Z,10.67
2019-03-24T17:51:04.722Z,12.63
2019-03-24T17:53:34.884Z,11.37
2019-03-24T17:56:06.176Z,11.60
2019-03-24T17:58:36.259Z,11.47
2019-03-24T18:01:06.173Z,7.77
2019-03-24T18:03:36.084Z,11.63
2019-03-24T18:06:05.936Z,11.30
2019-03-24T18:08:35.721Z,12.67
2019-03-24T18:11:06.239Z,8.97
2019-03-24T18:13:36.074Z,11.47
2019-03-24T18:16:05.907Z,11.30
2019-03-24T18:18:35.703Z,9.30
2019-03-24T18:21:05.422Z,9.10
2019-03-24T18:23:35.324Z,10.03
2019-03-24T18:26:05.113Z,12.27
2019-03-24T18:28:34.848Z,10.70
2019-03-24T18:31:05.170Z,12.10
2019-03-24T18:33:35.115Z,11.50
2019-03-24T18:36:05.821Z,8.17
2019-03-24T18:38:35.670Z,11.27
2019-03-24T18:41:05.893Z,10.30
2019-03-24T18:43:35.836Z,9.03
2019-03-24T18:46:05.594Z,14.73
2019-03-24T18:48:36.592Z,10.20
2019-03-24T18:51:08.052Z,16.50
2019-03-24T18:53:39.152Z,15.07
2019-03-24T18:56:08.927Z,13.97
2019-03-24T18:58:39.675Z,11.07
2019-03-24T19:01:09.531Z,10.80
2019-03-24T19:03:39.452Z,9.27
2019-03-24T19:06:10.073Z,11.77
2019-03-24T19:08:40.504Z,8.10
2019-03-24T19:11:10.418Z,11.47
2019-03-24T19:13:40.660Z,12.90
2019-03-24T19:16:10.839Z,10.10
2019-03-24T19:18:40.749Z,15.57
2019-03-24T19:21:11.677Z,8.67
2019-03-24T19:23:43.730Z,7.87
2019-03-24T19:26:15.202Z,13.30
2019-03-24T19:28:45.568Z,10.13
2019-03-24T19:31:15.375Z,11.67
2019-03-24T19:33:45.257Z,13.43
2019-03-24T19:36:16.188Z,10.17
2019-03-24T19:38:46.013Z,14.20
2019-03-24T19:41:17.025Z,17.23
2019-03-24T19:43:46.847Z,13.77
2019-03-24T19:46:16.804Z,14.60
2019-03-24T19:48:46.692Z,10.40
2019-03-24T19:51:16.597Z,16.67
2019-03-24T19:53:46.417Z,13.77
2019-03-24T19:56:16.643Z,16.23
2019-03-24T19:58:46.600Z,14.03
2019-03-24T20:01:18.366Z,14.67
2019-03-24T20:03:49.972Z,15.03
2019-03-24T20:06:20.040Z,18.83
2019-03-24T20:08:51.027Z,14.97
2019-03-24T20:11:21.254Z,15.30
2019-03-24T20:13:51.168Z,15.53
2019-03-24T20:16:21.106Z,14.77
2019-03-24T20:18:51.261Z,15.23
2019-03-24T20:21:21.072Z,16.93
2019-03-24T20:23:51.427Z,15.60
2019-03-24T20:26:21.253Z,14.77
2019-03-24T20:28:51.098Z,17.93
2019-03-24T20:31:23.117Z,12.03
2019-03-24T20:33:53.989Z,13.60
2019-03-24T20:36:24.206Z,11.40
2019-03-24T20:38:54.137Z,12.77
2019-03-24T20:41:24.143Z,11.00
2019-03-24T20:43:56.010Z,13.27
2019-03-24T20:46:25.864Z,18.13
2019-03-24T20:48:55.827Z,12.00
2019-03-24T20:51:25.740Z,14.37
2019-03-24T20:53:55.931Z,14.50
2019-03-24T20:56:25.873Z,16.00
2019-03-24T20:58:55.652Z,12.97
2019-03-24T21:01:25.453Z,11.77
2019-03-24T21:03:55.275Z,12.90
2019-03-24T21:06:25.012Z,11.13
2019-03-24T21:08:56.529Z,11.70
2019-03-24T21:11:26.452Z,11.73
2019-03-24T21:13:56.228Z,19.20
2019-03-24T21:16:26.061Z,14.00
2019-03-24T21:18:56.062Z,12.13
2019-03-24T21:21:25.793Z,17.00
2019-03-24T21:23:55.545Z,14.93
2019-03-24T21:26:25.682Z,13.57
2019-03-24T21:28:55.477Z,13.63
2019-03-24T21:31:25.308Z,14.30
2019-03-24T21:33:55.042Z,11.10
2019-03-24T21:36:25.636Z,12.33
2019-03-24T21:38:55.384Z,16.90
2019-03-24T21:41:25.086Z,11.93
2019-03-24T21:43:54.938Z,11.70
2019-03-24T21:46:24.698Z,13.10
2019-03-24T21:48:54.562Z,13.07
2019-03-24T21:51:24.371Z,8.70
2019-03-24T21:53:54.132Z,12.07
2019-03-24T21:56:23.964Z,13.30
2019-03-24T21:58:53.754Z,11.77
2019-03-24T22:01:23.546Z,14.07
2019-03-24T22:03:53.394Z,15.67
2019-03-24T22:06:23.077Z,9.90
2019-03-24T22:08:52.786Z,13.53
2019-03-24T22:11:22.628Z,10.97
2019-03-24T22:13:52.340Z,13.80
2019-03-24T22:16:22.057Z,14.30
2019-03-24T22:18:51.817Z,17.90
2019-03-24T22:21:21.602Z,13.07
2019-03-24T22:23:52.576Z,18.67
2019-03-24T22:26:22.628Z,13.63
2019-03-24T22:28:52.353Z,9.87
2019-03-24T22:31:22.080Z,15.87
2019-03-24T22:33:51.796Z,10.10
2019-03-24T22:36:21.542Z,14.77
2019-03-24T22:38:51.389Z,10.73
2019-03-24T22:41:21.289Z,14.50
2019-03-24T22:43:50.980Z,12.83
2019-03-24T22:46:20.705Z,12.97
2019-03-24T22:48:50.580Z,12.57
2019-03-24T22:51:20.307Z,10.60
2019-03-24T22:53:49.985Z,10.57
2019-03-24T22:56:19.674Z,13.63
2019-03-24T22:58:49.439Z,14.80
2019-03-24T23:01:19.589Z,18.43
2019-03-24T23:03:49.323Z,14.73
2019-03-24T23:06:19.002Z,12.63
2019-03-24T23:08:48.704Z,11.83
2019-03-24T23:11:19.138Z,13.40
2019-03-24T23:13:49.051Z,11.37
2019-03-24T23:16:18.850Z,13.53
2019-03-24T23:18:48.533Z,12.63
2019-03-24T23:21:18.327Z,14.30
2019-03-24T23:23:48.049Z,13.23
2019-03-24T23:26:17.761Z,15.40
2019-03-24T23:28:47.575Z,15.87
2019-03-24T23:31:17.274Z,15.43
2019-03-24T23:33:47.068Z,11.30
2019-03-24T23:36:16.775Z,13.60
2019-03-24T23:38:46.503Z,9.97
2019-03-24T23:41:16.249Z,9.53
2019-03-24T23:43:45.954Z,13.43
2019-03-24T23:46:15.774Z,10.70
2019-03-24T23:48:45.464Z,12.03
2019-03-24T23:51:15.202Z,13.70
2019-03-24T23:53:44.914Z,15.07
2019-03-24T23:56:14.649Z,12.83
2019-03-24T23:58:44.468Z,15.43
